sensor_id;sensor_type;location;lat;lon;timestamp;P1;durP1;ratioP1;P2;durP2;ratioP2
28086;SDS011;15392;48.912;8.380;2023-04-08T00:02:10;1.10;;;1.10;;
28086;SDS011;15392;48.912;8.380;2023-04-08T00:04:36;0.90;;;0.90;;
28086;SDS011;15392;48.912;8.380;2023-04-08T00:07:01;1.10;;;1.10;;
28086;SDS011;15392;48.912;8.380;2023-04-08T00:09:27;1.05;;;1.05;;
28086;SDS011;15392;48.912;8.380;2023-04-08T00:11:53;1.00;;;1.00;;
28086;SDS011;15392;48.912;8.380;2023-04-08T00:14:18;0.88;;;0.88;;
28086;SDS011;15392;48.912;8.380;2023-04-08T00:16:44;1.17;;;1.17;;
28086;SDS011;15392;48.912;8.380;2023-04-08T00:19:10;1.13;;;1.13;;
28086;SDS011;15392;48.912;8.380;2023-04-08T00:21:36;0.85;;;0.85;;
28086;SDS011;15392;48.912;8.380;2023-04-08T00:24:02;1.30;;;1.30;;
28086;SDS011;15392;48.912;8.380;2023-04-08T00:26:27;1.17;;;1.17;;
28086;SDS011;15392;48.912;8.380;2023-04-08T00:28:53;1.17;;;1.17;;
28086;SDS011;15392;48.912;8.380;2023-04-08T00:31:19;1.05;;;1.05;;
28086;SDS011;15392;48.912;8.380;2023-04-08T00:33:45;1.27;;;1.27;;
28086;SDS011;15392;48.912;8.380;2023-04-08T00:36:11;1.00;;;1.00;;
28086;SDS011;15392;48.912;8.380;2023-04-08T00:38:37;1.17;;;1.17;;
28086;SDS011;15392;48.912;8.380;2023-04-08T00:41:02;1.33;;;1.33;;
28086;SDS011;15392;48.912;8.380;2023-04-08T00:43:28;1.45;;;1.45;;
28086;SDS011;15392;48.912;8.380;2023-04-08T00:45:54;1.15;;;1.15;;
28086;SDS011;15392;48.912;8.380;2023-04-08T00:48:20;1.27;;;1.27;;
28086;SDS011;15392;48.912;8.380;2023-04-08T00:50:45;1.52;;;1.42;;
28086;SDS011;15392;48.912;8.380;2023-04-08T00:53:16;1.20;;;1.20;;
28086;SDS011;15392;48.912;8.380;2023-04-08T00:55:43;1.20;;;1.20;;
28086;SDS011;15392;48.912;8.380;2023-04-08T00:58:09;1.30;;;1.30;;
28086;SDS011;15392;48.912;8.380;2023-04-08T01:00:36;1.70;;;1.60;;
28086;SDS011;15392;48.912;8.380;2023-04-08T01:03:17;1.23;;;1.23;;
28086;SDS011;15392;48.912;8.380;2023-04-08T01:06:08;1.42;;;1.38;;
28086;SDS011;15392;48.912;8.380;2023-04-08T01:08:41;1.35;;;1.35;;
28086;SDS011;15392;48.912;8.380;2023-04-08T01:11:09;1.20;;;1.20;;
28086;SDS011;15392;48.912;8.380;2023-04-08T01:13:39;1.23;;;1.23;;
28086;SDS011;15392;48.912;8.380;2023-04-08T01:16:11;1.50;;;1.50;;
28086;SDS011;15392;48.912;8.380;2023-04-08T01:18:40;1.30;;;1.30;;
28086;SDS011;15392;48.912;8.380;2023-04-08T01:21:08;1.60;;;1.60;;
28086;SDS011;15392;48.912;8.380;2023-04-08T01:23:45;1.67;;;1.67;;
28086;SDS011;15392;48.912;8.380;2023-04-08T01:26:43;1.40;;;1.40;;
28086;SDS011;15392;48.912;8.380;2023-04-08T01:29:09;1.38;;;1.38;;
28086;SDS011;15392;48.912;8.380;2023-04-08T01:31:36;1.50;;;1.50;;
28086;SDS011;15392;48.912;8.380;2023-04-08T01:34:03;1.35;;;1.35;;
28086;SDS011;15392;48.912;8.380;2023-04-08T01:36:30;1.50;;;1.50;;
28086;SDS011;15392;48.912;8.380;2023-04-08T01:38:58;1.55;;;1.55;;
28086;SDS011;15392;48.912;8.380;2023-04-08T01:41:26;1.60;;;1.60;;
28086;SDS011;15392;48.912;8.380;2023-04-08T01:43:53;1.40;;;1.40;;
28086;SDS011;15392;48.912;8.380;2023-04-08T01:46:19;2.00;;;1.90;;
28086;SDS011;15392;48.912;8.380;2023-04-08T01:48:46;1.70;;;1.70;;
28086;SDS011;15392;48.912;8.380;2023-04-08T01:51:12;1.77;;;1.77;;
28086;SDS011;15392;48.912;8.380;2023-04-08T01:53:40;1.92;;;1.83;;
28086;SDS011;15392;48.912;8.380;2023-04-08T01:56:08;1.48;;;1.48;;
28086;SDS011;15392;48.912;8.380;2023-04-08T01:58:38;1.60;;;1.60;;
28086;SDS011;15392;48.912;8.380;2023-04-08T02:01:12;1.50;;;1.50;;
28086;SDS011;15392;48.912;8.380;2023-04-08T02:03:42;1.90;;;1.80;;
28086;SDS011;15392;48.912;8.380;2023-04-08T02:06:09;1.85;;;1.80;;
28086;SDS011;15392;48.912;8.380;2023-04-08T02:08:35;1.60;;;1.60;;
28086;SDS011;15392;48.912;8.380;2023-04-08T02:11:01;1.77;;;1.77;;
28086;SDS011;15392;48.912;8.380;2023-04-08T02:13:28;1.75;;;1.75;;
28086;SDS011;15392;48.912;8.380;2023-04-08T02:16:30;1.52;;;1.52;;
28086;SDS011;15392;48.912;8.380;2023-04-08T02:18:57;1.38;;;1.38;;
28086;SDS011;15392;48.912;8.380;2023-04-08T02:21:33;1.30;;;1.30;;
28086;SDS011;15392;48.912;8.380;2023-04-08T02:24:08;3.30;;;1.35;;
28086;SDS011;15392;48.912;8.380;2023-04-08T02:26:38;1.20;;;1.20;;
28086;SDS011;15392;48.912;8.380;2023-04-08T02:29:07;1.48;;;1.48;;
28086;SDS011;15392;48.912;8.380;2023-04-08T02:31:43;1.10;;;1.10;;
28086;SDS011;15392;48.912;8.380;2023-04-08T02:34:11;1.33;;;1.33;;
28086;SDS011;15392;48.912;8.380;2023-04-08T02:36:39;1.52;;;1.50;;
28086;SDS011;15392;48.912;8.380;2023-04-08T02:39:06;1.30;;;1.30;;
28086;SDS011;15392;48.912;8.380;2023-04-08T02:41:32;1.40;;;1.40;;
28086;SDS011;15392;48.912;8.380;2023-04-08T02:43:58;1.85;;;1.75;;
28086;SDS011;15392;48.912;8.380;2023-04-08T02:46:24;1.55;;;1.55;;
28086;SDS011;15392;48.912;8.380;2023-04-08T02:48:50;1.45;;;1.45;;
28086;SDS011;15392;48.912;8.380;2023-04-08T02:51:15;1.50;;;1.50;;
28086;SDS011;15392;48.912;8.380;2023-04-08T02:53:41;1.58;;;1.58;;
28086;SDS011;15392;48.912;8.380;2023-04-08T02:56:10;1.60;;;1.60;;
28086;SDS011;15392;48.912;8.380;2023-04-08T02:58:36;1.73;;;1.73;;
28086;SDS011;15392;48.912;8.380;2023-04-08T03:01:02;1.58;;;1.58;;
28086;SDS011;15392;48.912;8.380;2023-04-08T03:03:27;1.60;;;1.60;;
28086;SDS011;15392;48.912;8.380;2023-04-08T03:05:54;1.63;;;1.63;;
28086;SDS011;15392;48.912;8.380;2023-04-08T03:08:20;1.60;;;1.60;;
28086;SDS011;15392;48.912;8.380;2023-04-08T03:10:47;1.88;;;1.77;;
28086;SDS011;15392;48.912;8.380;2023-04-08T03:13:13;1.63;;;1.63;;
28086;SDS011;15392;48.912;8.380;2023-04-08T03:15:40;1.50;;;1.50;;
28086;SDS011;15392;48.912;8.380;2023-04-08T03:18:06;1.67;;;1.67;;
28086;SDS011;15392;48.912;8.380;2023-04-08T03:20:31;1.73;;;1.70;;
28086;SDS011;15392;48.912;8.380;2023-04-08T03:22:57;1.98;;;1.88;;
28086;SDS011;15392;48.912;8.380;2023-04-08T03:25:23;1.65;;;1.65;;
28086;SDS011;15392;48.912;8.380;2023-04-08T03:27:49;1.73;;;1.73;;
28086;SDS011;15392;48.912;8.380;2023-04-08T03:30:15;1.50;;;1.50;;
28086;SDS011;15392;48.912;8.380;2023-04-08T03:32:40;1.85;;;1.77;;
28086;SDS011;15392;48.912;8.380;2023-04-08T03:35:06;1.80;;;1.80;;
28086;SDS011;15392;48.912;8.380;2023-04-08T03:37:33;2.10;;;2.00;;
28086;SDS011;15392;48.912;8.380;2023-04-08T03:39:58;2.00;;;1.90;;
28086;SDS011;15392;48.912;8.380;2023-04-08T03:42:24;1.98;;;1.90;;
28086;SDS011;15392;48.912;8.380;2023-04-08T03:44:50;1.85;;;1.85;;
28086;SDS011;15392;48.912;8.380;2023-04-08T03:47:15;1.52;;;1.52;;
28086;SDS011;15392;48.912;8.380;2023-04-08T03:49:41;1.83;;;1.83;;
28086;SDS011;15392;48.912;8.380;2023-04-08T03:52:07;2.13;;;2.03;;
28086;SDS011;15392;48.912;8.380;2023-04-08T03:54:32;1.80;;;1.80;;
28086;SDS011;15392;48.912;8.380;2023-04-08T03:56:58;1.80;;;1.80;;
28086;SDS011;15392;48.912;8.380;2023-04-08T03:59:24;1.80;;;1.80;;
28086;SDS011;15392;48.912;8.380;2023-04-08T04:01:50;2.03;;;1.92;;
28086;SDS011;15392;48.912;8.380;2023-04-08T04:04:17;2.03;;;1.92;;
28086;SDS011;15392;48.912;8.380;2023-04-08T04:06:43;1.73;;;1.73;;
28086;SDS011;15392;48.912;8.380;2023-04-08T04:09:09;1.80;;;1.80;;
28086;SDS011;15392;48.912;8.380;2023-04-08T04:11:35;2.33;;;2.22;;
28086;SDS011;15392;48.912;8.380;2023-04-08T04:14:01;2.10;;;2.00;;
28086;SDS011;15392;48.912;8.380;2023-04-08T04:16:27;2.10;;;2.00;;
28086;SDS011;15392;48.912;8.380;2023-04-08T04:18:53;1.95;;;1.95;;
28086;SDS011;15392;48.912;8.380;2023-04-08T04:21:19;2.22;;;2.15;;
28086;SDS011;15392;48.912;8.380;2023-04-08T04:23:45;2.15;;;2.05;;
28086;SDS011;15392;48.912;8.380;2023-04-08T04:26:11;2.30;;;2.20;;
28086;SDS011;15392;48.912;8.380;2023-04-08T04:28:37;2.20;;;2.10;;
28086;SDS011;15392;48.912;8.380;2023-04-08T04:31:03;2.45;;;2.35;;
28086;SDS011;15392;48.912;8.380;2023-04-08T04:33:29;2.85;;;2.75;;
28086;SDS011;15392;48.912;8.380;2023-04-08T04:35:55;2.53;;;2.42;;
28086;SDS011;15392;48.912;8.380;2023-04-08T04:38:21;2.50;;;2.40;;
28086;SDS011;15392;48.912;8.380;2023-04-08T04:40:47;2.42;;;2.33;;
28086;SDS011;15392;48.912;8.380;2023-04-08T04:43:13;2.63;;;2.53;;
28086;SDS011;15392;48.912;8.380;2023-04-08T04:45:38;2.33;;;2.22;;
28086;SDS011;15392;48.912;8.380;2023-04-08T04:48:04;2.72;;;2.63;;
28086;SDS011;15392;48.912;8.380;2023-04-08T04:50:30;2.55;;;2.45;;
28086;SDS011;15392;48.912;8.380;2023-04-08T04:52:56;2.75;;;2.65;;
28086;SDS011;15392;48.912;8.380;2023-04-08T04:55:22;2.45;;;2.35;;
28086;SDS011;15392;48.912;8.380;2023-04-08T04:57:47;2.33;;;2.22;;
28086;SDS011;15392;48.912;8.380;2023-04-08T05:00:13;2.55;;;2.45;;
28086;SDS011;15392;48.912;8.380;2023-04-08T05:02:40;2.60;;;2.50;;
28086;SDS011;15392;48.912;8.380;2023-04-08T05:05:06;2.65;;;2.55;;
28086;SDS011;15392;48.912;8.380;2023-04-08T05:07:35;2.45;;;2.35;;
28086;SDS011;15392;48.912;8.380;2023-04-08T05:10:02;2.40;;;2.30;;
28086;SDS011;15392;48.912;8.380;2023-04-08T05:12:30;2.30;;;2.20;;
28086;SDS011;15392;48.912;8.380;2023-04-08T05:14:59;2.40;;;2.30;;
28086;SDS011;15392;48.912;8.380;2023-04-08T05:17:24;2.50;;;2.40;;
28086;SDS011;15392;48.912;8.380;2023-04-08T05:19:50;2.25;;;2.22;;
28086;SDS011;15392;48.912;8.380;2023-04-08T05:22:17;2.72;;;2.63;;
28086;SDS011;15392;48.912;8.380;2023-04-08T05:24:43;2.17;;;2.08;;
28086;SDS011;15392;48.912;8.380;2023-04-08T05:27:11;2.50;;;2.40;;
28086;SDS011;15392;48.912;8.380;2023-04-08T05:29:37;2.60;;;2.50;;
28086;SDS011;15392;48.912;8.380;2023-04-08T05:32:03;2.28;;;2.22;;
28086;SDS011;15392;48.912;8.380;2023-04-08T05:34:30;2.55;;;2.45;;
28086;SDS011;15392;48.912;8.380;2023-04-08T05:36:56;2.80;;;2.70;;
28086;SDS011;15392;48.912;8.380;2023-04-08T05:39:21;2.25;;;2.15;;
28086;SDS011;15392;48.912;8.380;2023-04-08T05:41:48;2.45;;;2.28;;
28086;SDS011;15392;48.912;8.380;2023-04-08T05:44:14;2.60;;;2.50;;
28086;SDS011;15392;48.912;8.380;2023-04-08T05:46:40;2.28;;;2.17;;
28086;SDS011;15392;48.912;8.380;2023-04-08T05:49:05;2.55;;;2.45;;
28086;SDS011;15392;48.912;8.380;2023-04-08T05:51:31;2.70;;;2.60;;
28086;SDS011;15392;48.912;8.380;2023-04-08T05:53:57;2.65;;;2.55;;
28086;SDS011;15392;48.912;8.380;2023-04-08T05:56:23;2.63;;;2.53;;
28086;SDS011;15392;48.912;8.380;2023-04-08T05:58:48;2.85;;;2.75;;
28086;SDS011;15392;48.912;8.380;2023-04-08T06:01:14;2.38;;;2.28;;
28086;SDS011;15392;48.912;8.380;2023-04-08T06:03:40;2.60;;;2.50;;
28086;SDS011;15392;48.912;8.380;2023-04-08T06:06:09;2.60;;;2.50;;
28086;SDS011;15392;48.912;8.380;2023-04-08T06:08:38;2.53;;;2.42;;
28086;SDS011;15392;48.912;8.380;2023-04-08T06:11:04;2.15;;;2.05;;
28086;SDS011;15392;48.912;8.380;2023-04-08T06:13:30;2.58;;;2.47;;
28086;SDS011;15392;48.912;8.380;2023-04-08T06:15:56;2.50;;;2.40;;
28086;SDS011;15392;48.912;8.380;2023-04-08T06:18:22;2.50;;;2.40;;
28086;SDS011;15392;48.912;8.380;2023-04-08T06:20:48;2.53;;;2.42;;
28086;SDS011;15392;48.912;8.380;2023-04-08T06:23:14;2.53;;;2.42;;
28086;SDS011;15392;48.912;8.380;2023-04-08T06:25:40;2.63;;;2.53;;
28086;SDS011;15392;48.912;8.380;2023-04-08T06:28:06;2.85;;;2.65;;
28086;SDS011;15392;48.912;8.380;2023-04-08T06:30:32;2.65;;;2.55;;
28086;SDS011;15392;48.912;8.380;2023-04-08T06:32:58;2.75;;;2.65;;
28086;SDS011;15392;48.912;8.380;2023-04-08T06:35:23;2.58;;;2.47;;
28086;SDS011;15392;48.912;8.380;2023-04-08T06:37:49;2.53;;;2.42;;
28086;SDS011;15392;48.912;8.380;2023-04-08T06:40:15;2.63;;;2.53;;
28086;SDS011;15392;48.912;8.380;2023-04-08T06:42:41;2.92;;;2.80;;
28086;SDS011;15392;48.912;8.380;2023-04-08T06:45:08;2.88;;;2.78;;
28086;SDS011;15392;48.912;8.380;2023-04-08T06:47:35;3.03;;;2.92;;
28086;SDS011;15392;48.912;8.380;2023-04-08T06:50:01;3.05;;;2.95;;
28086;SDS011;15392;48.912;8.380;2023-04-08T06:52:26;3.10;;;3.00;;
28086;SDS011;15392;48.912;8.380;2023-04-08T06:54:52;3.03;;;2.92;;
28086;SDS011;15392;48.912;8.380;2023-04-08T06:57:18;3.45;;;3.35;;
28086;SDS011;15392;48.912;8.380;2023-04-08T06:59:43;3.08;;;2.97;;
28086;SDS011;15392;48.912;8.380;2023-04-08T07:02:10;3.03;;;2.92;;
28086;SDS011;15392;48.912;8.380;2023-04-08T07:04:36;2.95;;;2.85;;
28086;SDS011;15392;48.912;8.380;2023-04-08T07:07:02;3.10;;;3.00;;
28086;SDS011;15392;48.912;8.380;2023-04-08T07:09:28;2.88;;;2.78;;
28086;SDS011;15392;48.912;8.380;2023-04-08T07:11:54;3.00;;;2.90;;
28086;SDS011;15392;48.912;8.380;2023-04-08T07:14:19;3.08;;;2.97;;
28086;SDS011;15392;48.912;8.380;2023-04-08T07:16:45;3.20;;;3.10;;
28086;SDS011;15392;48.912;8.380;2023-04-08T07:19:11;2.88;;;2.78;;
28086;SDS011;15392;48.912;8.380;2023-04-08T07:21:37;3.50;;;3.33;;
28086;SDS011;15392;48.912;8.380;2023-04-08T07:24:02;3.13;;;3.03;;
28086;SDS011;15392;48.912;8.380;2023-04-08T07:26:28;2.90;;;2.80;;
28086;SDS011;15392;48.912;8.380;2023-04-08T07:28:54;3.30;;;3.20;;
28086;SDS011;15392;48.912;8.380;2023-04-08T07:31:20;3.28;;;3.17;;
28086;SDS011;15392;48.912;8.380;2023-04-08T07:33:45;3.15;;;3.05;;
28086;SDS011;15392;48.912;8.380;2023-04-08T07:36:11;3.22;;;3.13;;
28086;SDS011;15392;48.912;8.380;2023-04-08T07:38:38;3.35;;;3.25;;
28086;SDS011;15392;48.912;8.380;2023-04-08T07:41:04;2.88;;;2.78;;
28086;SDS011;15392;48.912;8.380;2023-04-08T07:43:30;2.92;;;2.83;;
28086;SDS011;15392;48.912;8.380;2023-04-08T07:46:02;3.17;;;3.08;;
28086;SDS011;15392;48.912;8.380;2023-04-08T07:48:31;3.10;;;3.00;;
28086;SDS011;15392;48.912;8.380;2023-04-08T07:51:02;3.00;;;2.90;;
28086;SDS011;15392;48.912;8.380;2023-04-08T07:53:30;3.13;;;3.03;;
28086;SDS011;15392;48.912;8.380;2023-04-08T07:55:57;3.03;;;2.92;;
28086;SDS011;15392;48.912;8.380;2023-04-08T07:58:23;2.83;;;2.72;;
28086;SDS011;15392;48.912;8.380;2023-04-08T08:00:49;2.97;;;2.88;;
28086;SDS011;15392;48.912;8.380;2023-04-08T08:03:15;2.58;;;2.47;;
28086;SDS011;15392;48.912;8.380;2023-04-08T08:05:41;2.85;;;2.75;;
28086;SDS011;15392;48.912;8.380;2023-04-08T08:08:07;3.03;;;2.92;;
28086;SDS011;15392;48.912;8.380;2023-04-08T08:10:35;3.22;;;2.92;;
28086;SDS011;15392;48.912;8.380;2023-04-08T08:13:04;3.25;;;3.05;;
28086;SDS011;15392;48.912;8.380;2023-04-08T08:15:31;2.75;;;2.65;;
28086;SDS011;15392;48.912;8.380;2023-04-08T08:17:57;2.78;;;2.67;;
28086;SDS011;15392;48.912;8.380;2023-04-08T08:20:22;2.63;;;2.53;;
28086;SDS011;15392;48.912;8.380;2023-04-08T08:22:48;2.50;;;2.40;;
28086;SDS011;15392;48.912;8.380;2023-04-08T08:25:14;2.90;;;2.80;;
28086;SDS011;15392;48.912;8.380;2023-04-08T08:27:41;2.63;;;2.53;;
28086;SDS011;15392;48.912;8.380;2023-04-08T08:30:07;2.55;;;2.45;;
28086;SDS011;15392;48.912;8.380;2023-04-08T08:32:34;2.75;;;2.65;;
28086;SDS011;15392;48.912;8.380;2023-04-08T08:35:00;2.90;;;2.80;;
28086;SDS011;15392;48.912;8.380;2023-04-08T08:37:26;2.42;;;2.33;;
28086;SDS011;15392;48.912;8.380;2023-04-08T08:39:52;2.78;;;2.67;;
28086;SDS011;15392;48.912;8.380;2023-04-08T08:42:19;2.35;;;2.25;;
28086;SDS011;15392;48.912;8.380;2023-04-08T08:47:17;2.00;;;1.90;;
28086;SDS011;15392;48.912;8.380;2023-04-08T08:49:43;2.05;;;1.98;;
28086;SDS011;15392;48.912;8.380;2023-04-08T08:52:09;1.88;;;1.77;;
28086;SDS011;15392;48.912;8.380;2023-04-08T08:54:36;2.30;;;2.20;;
28086;SDS011;15392;48.912;8.380;2023-04-08T08:57:02;2.42;;;2.33;;
28086;SDS011;15392;48.912;8.380;2023-04-08T08:59:28;2.22;;;2.13;;
28086;SDS011;15392;48.912;8.380;2023-04-08T09:01:54;2.33;;;2.22;;
28086;SDS011;15392;48.912;8.380;2023-04-08T09:04:20;2.28;;;2.17;;
28086;SDS011;15392;48.912;8.380;2023-04-08T09:06:50;2.38;;;2.28;;
28086;SDS011;15392;48.912;8.380;2023-04-08T09:09:50;2.15;;;2.05;;
28086;SDS011;15392;48.912;8.380;2023-04-08T09:12:17;1.95;;;1.95;;
28086;SDS011;15392;48.912;8.380;2023-04-08T09:14:43;1.88;;;1.88;;
28086;SDS011;15392;48.912;8.380;2023-04-08T09:17:09;2.25;;;2.15;;
28086;SDS011;15392;48.912;8.380;2023-04-08T09:19:35;2.22;;;2.13;;
28086;SDS011;15392;48.912;8.380;2023-04-08T09:22:08;2.25;;;2.15;;
28086;SDS011;15392;48.912;8.380;2023-04-08T09:24:35;2.35;;;2.25;;
28086;SDS011;15392;48.912;8.380;2023-04-08T09:27:05;2.30;;;2.20;;
28086;SDS011;15392;48.912;8.380;2023-04-08T09:29:31;2.13;;;2.03;;
28086;SDS011;15392;48.912;8.380;2023-04-08T09:31:58;2.30;;;2.20;;
28086;SDS011;15392;48.912;8.380;2023-04-08T09:34:26;2.13;;;2.03;;
28086;SDS011;15392;48.912;8.380;2023-04-08T09:36:56;2.08;;;1.98;;
28086;SDS011;15392;48.912;8.380;2023-04-08T09:39:22;2.63;;;2.53;;
28086;SDS011;15392;48.912;8.380;2023-04-08T09:41:48;2.30;;;2.20;;
28086;SDS011;15392;48.912;8.380;2023-04-08T09:44:15;2.63;;;2.53;;
28086;SDS011;15392;48.912;8.380;2023-04-08T09:49:38;2.10;;;2.00;;
28086;SDS011;15392;48.912;8.380;2023-04-08T09:52:16;2.03;;;1.92;;
28086;SDS011;15392;48.912;8.380;2023-04-08T09:54:53;2.22;;;2.13;;
28086;SDS011;15392;48.912;8.380;2023-04-08T10:00:29;2.15;;;2.08;;
28086;SDS011;15392;48.912;8.380;2023-04-08T10:06:04;2.10;;;2.00;;
28086;SDS011;15392;48.912;8.380;2023-04-08T10:08:32;2.45;;;2.35;;
28086;SDS011;15392;48.912;8.380;2023-04-08T10:10:58;1.98;;;1.88;;
28086;SDS011;15392;48.912;8.380;2023-04-08T10:13:24;2.25;;;2.15;;
28086;SDS011;15392;48.912;8.380;2023-04-08T10:16:16;2.00;;;2.00;;
28086;SDS011;15392;48.912;8.380;2023-04-08T10:18:51;2.20;;;2.05;;
28086;SDS011;15392;48.912;8.380;2023-04-08T10:24:19;1.90;;;1.80;;
28086;SDS011;15392;48.912;8.380;2023-04-08T10:26:49;2.20;;;2.10;;
28086;SDS011;15392;48.912;8.380;2023-04-08T10:31:48;2.28;;;2.17;;
28086;SDS011;15392;48.912;8.380;2023-04-08T10:34:19;2.10;;;2.00;;
28086;SDS011;15392;48.912;8.380;2023-04-08T10:36:48;1.90;;;1.85;;
28086;SDS011;15392;48.912;8.380;2023-04-08T10:39:14;2.40;;;2.30;;
28086;SDS011;15392;48.912;8.380;2023-04-08T10:41:48;1.98;;;1.95;;
28086;SDS011;15392;48.912;8.380;2023-04-08T10:44:19;2.15;;;2.05;;
28086;SDS011;15392;48.912;8.380;2023-04-08T10:46:49;2.25;;;2.15;;
28086;SDS011;15392;48.912;8.380;2023-04-08T10:49:16;2.10;;;2.03;;
28086;SDS011;15392;48.912;8.380;2023-04-08T10:51:43;1.92;;;1.92;;
28086;SDS011;15392;48.912;8.380;2023-04-08T10:54:14;1.92;;;1.92;;
28086;SDS011;15392;48.912;8.380;2023-04-08T10:56:43;1.80;;;1.80;;
28086;SDS011;15392;48.912;8.380;2023-04-08T10:59:27;1.70;;;1.70;;
28086;SDS011;15392;48.912;8.380;2023-04-08T11:01:58;2.05;;;1.95;;
28086;SDS011;15392;48.912;8.380;2023-04-08T11:04:25;2.03;;;1.92;;
28086;SDS011;15392;48.912;8.380;2023-04-08T11:06:51;2.28;;;2.17;;
28086;SDS011;15392;48.912;8.380;2023-04-08T11:09:17;2.00;;;2.00;;
28086;SDS011;15392;48.912;8.380;2023-04-08T11:11:43;2.53;;;2.42;;
28086;SDS011;15392;48.912;8.380;2023-04-08T11:14:11;2.25;;;2.13;;
28086;SDS011;15392;48.912;8.380;2023-04-08T11:16:37;2.30;;;2.20;;
28086;SDS011;15392;48.912;8.380;2023-04-08T11:19:04;4.07;;;2.38;;
28086;SDS011;15392;48.912;8.380;2023-04-08T11:21:31;2.28;;;2.17;;
28086;SDS011;15392;48.912;8.380;2023-04-08T11:24:00;2.22;;;2.17;;
28086;SDS011;15392;48.912;8.380;2023-04-08T11:28:56;1.88;;;1.77;;
28086;SDS011;15392;48.912;8.380;2023-04-08T11:31:22;2.05;;;2.03;;
28086;SDS011;15392;48.912;8.380;2023-04-08T11:33:48;2.42;;;2.33;;
28086;SDS011;15392;48.912;8.380;2023-04-08T11:36:18;2.50;;;2.30;;
28086;SDS011;15392;48.912;8.380;2023-04-08T11:38:45;2.28;;;1.92;;
28086;SDS011;15392;48.912;8.380;2023-04-08T11:41:12;2.05;;;1.95;;
28086;SDS011;15392;48.912;8.380;2023-04-08T11:43:38;2.40;;;2.30;;
28086;SDS011;15392;48.912;8.380;2023-04-08T11:46:08;2.33;;;2.20;;
28086;SDS011;15392;48.912;8.380;2023-04-08T11:48:35;2.20;;;2.10;;
28086;SDS011;15392;48.912;8.380;2023-04-08T11:51:06;1.90;;;1.90;;
28086;SDS011;15392;48.912;8.380;2023-04-08T11:53:36;2.10;;;2.00;;
28086;SDS011;15392;48.912;8.380;2023-04-08T11:56:18;2.42;;;2.33;;
28086;SDS011;15392;48.912;8.380;2023-04-08T11:58:46;2.42;;;2.33;;
28086;SDS011;15392;48.912;8.380;2023-04-08T12:01:13;2.47;;;2.38;;
28086;SDS011;15392;48.912;8.380;2023-04-08T12:03:52;2.50;;;2.40;;
28086;SDS011;15392;48.912;8.380;2023-04-08T12:06:22;1.95;;;1.85;;
28086;SDS011;15392;48.912;8.380;2023-04-08T12:08:48;2.00;;;1.90;;
28086;SDS011;15392;48.912;8.380;2023-04-08T12:11:14;2.42;;;2.33;;
28086;SDS011;15392;48.912;8.380;2023-04-08T12:13:40;2.17;;;2.08;;
28086;SDS011;15392;48.912;8.380;2023-04-08T12:16:06;2.30;;;2.20;;
28086;SDS011;15392;48.912;8.380;2023-04-08T12:18:32;2.15;;;2.05;;
28086;SDS011;15392;48.912;8.380;2023-04-08T12:20:58;2.30;;;2.20;;
28086;SDS011;15392;48.912;8.380;2023-04-08T12:23:24;2.03;;;1.92;;
28086;SDS011;15392;48.912;8.380;2023-04-08T12:25:50;2.25;;;2.15;;
28086;SDS011;15392;48.912;8.380;2023-04-08T12:28:16;2.33;;;2.22;;
28086;SDS011;15392;48.912;8.380;2023-04-08T12:30:42;2.28;;;2.17;;
28086;SDS011;15392;48.912;8.380;2023-04-08T12:33:08;2.42;;;2.33;;
28086;SDS011;15392;48.912;8.380;2023-04-08T12:35:33;2.28;;;2.17;;
28086;SDS011;15392;48.912;8.380;2023-04-08T12:37:59;1.88;;;1.88;;
28086;SDS011;15392;48.912;8.380;2023-04-08T12:40:26;2.08;;;1.98;;
28086;SDS011;15392;48.912;8.380;2023-04-08T12:42:51;2.35;;;2.25;;
28086;SDS011;15392;48.912;8.380;2023-04-08T12:45:17;2.58;;;2.47;;
28086;SDS011;15392;48.912;8.380;2023-04-08T12:47:43;2.08;;;1.98;;
28086;SDS011;15392;48.912;8.380;2023-04-08T12:50:08;2.20;;;2.10;;
28086;SDS011;15392;48.912;8.380;2023-04-08T12:52:34;2.42;;;2.33;;
28086;SDS011;15392;48.912;8.380;2023-04-08T12:55:00;2.03;;;1.98;;
28086;SDS011;15392;48.912;8.380;2023-04-08T12:57:26;2.22;;;2.13;;
28086;SDS011;15392;48.912;8.380;2023-04-08T12:59:52;2.38;;;2.28;;
28086;SDS011;15392;48.912;8.380;2023-04-08T13:02:18;2.42;;;2.33;;
28086;SDS011;15392;48.912;8.380;2023-04-08T13:04:43;2.45;;;2.35;;
28086;SDS011;15392;48.912;8.380;2023-04-08T13:07:09;2.47;;;2.38;;
28086;SDS011;15392;48.912;8.380;2023-04-08T13:09:35;2.42;;;2.33;;
28086;SDS011;15392;48.912;8.380;2023-04-08T13:12:01;2.10;;;2.00;;
28086;SDS011;15392;48.912;8.380;2023-04-08T13:14:29;2.53;;;2.42;;
28086;SDS011;15392;48.912;8.380;2023-04-08T13:16:55;2.30;;;2.20;;
28086;SDS011;15392;48.912;8.380;2023-04-08T13:19:21;2.08;;;2.03;;
28086;SDS011;15392;48.912;8.380;2023-04-08T13:21:46;2.28;;;2.17;;
28086;SDS011;15392;48.912;8.380;2023-04-08T13:24:12;2.40;;;2.30;;
28086;SDS011;15392;48.912;8.380;2023-04-08T13:26:38;2.20;;;2.10;;
28086;SDS011;15392;48.912;8.380;2023-04-08T13:29:04;2.33;;;2.22;;
28086;SDS011;15392;48.912;8.380;2023-04-08T13:31:29;2.28;;;2.17;;
28086;SDS011;15392;48.912;8.380;2023-04-08T13:33:55;2.08;;;1.98;;
28086;SDS011;15392;48.912;8.380;2023-04-08T13:36:21;2.30;;;2.20;;
28086;SDS011;15392;48.912;8.380;2023-04-08T13:38:46;2.38;;;2.28;;
28086;SDS011;15392;48.912;8.380;2023-04-08T13:41:12;2.10;;;2.00;;
28086;SDS011;15392;48.912;8.380;2023-04-08T13:43:38;2.25;;;2.15;;
28086;SDS011;15392;48.912;8.380;2023-04-08T13:46:04;2.22;;;2.10;;
28086;SDS011;15392;48.912;8.380;2023-04-08T13:48:29;2.17;;;2.08;;
28086;SDS011;15392;48.912;8.380;2023-04-08T13:50:55;2.08;;;1.98;;
28086;SDS011;15392;48.912;8.380;2023-04-08T13:53:21;2.25;;;2.15;;
28086;SDS011;15392;48.912;8.380;2023-04-08T13:55:47;2.08;;;1.98;;
28086;SDS011;15392;48.912;8.380;2023-04-08T13:58:12;2.00;;;2.00;;
28086;SDS011;15392;48.912;8.380;2023-04-08T14:00:38;2.13;;;2.03;;
28086;SDS011;15392;48.912;8.380;2023-04-08T14:03:04;1.75;;;1.73;;
28086;SDS011;15392;48.912;8.380;2023-04-08T14:05:30;1.83;;;1.83;;
28086;SDS011;15392;48.912;8.380;2023-04-08T14:07:55;1.73;;;1.73;;
28086;SDS011;15392;48.912;8.380;2023-04-08T14:10:21;1.92;;;1.83;;
28086;SDS011;15392;48.912;8.380;2023-04-08T14:12:47;2.20;;;2.10;;
28086;SDS011;15392;48.912;8.380;2023-04-08T14:15:13;2.05;;;1.98;;
28086;SDS011;15392;48.912;8.380;2023-04-08T14:17:38;1.60;;;1.60;;
28086;SDS011;15392;48.912;8.380;2023-04-08T14:20:04;1.77;;;1.70;;
28086;SDS011;15392;48.912;8.380;2023-04-08T14:22:31;1.70;;;1.70;;
28086;SDS011;15392;48.912;8.380;2023-04-08T14:24:57;1.50;;;1.50;;
28086;SDS011;15392;48.912;8.380;2023-04-08T14:27:22;1.60;;;1.60;;
28086;SDS011;15392;48.912;8.380;2023-04-08T14:29:48;1.40;;;1.40;;
28086;SDS011;15392;48.912;8.380;2023-04-08T14:32:14;1.60;;;1.60;;
28086;SDS011;15392;48.912;8.380;2023-04-08T14:34:40;1.35;;;1.35;;
28086;SDS011;15392;48.912;8.380;2023-04-08T14:37:06;1.50;;;1.50;;
28086;SDS011;15392;48.912;8.380;2023-04-08T14:39:32;1.55;;;1.55;;
28086;SDS011;15392;48.912;8.380;2023-04-08T14:41:57;1.40;;;1.40;;
28086;SDS011;15392;48.912;8.380;2023-04-08T14:44:23;1.50;;;1.50;;
28086;SDS011;15392;48.912;8.380;2023-04-08T14:46:49;1.45;;;1.45;;
28086;SDS011;15392;48.912;8.380;2023-04-08T14:49:15;1.33;;;1.33;;
28086;SDS011;15392;48.912;8.380;2023-04-08T14:51:40;1.35;;;1.35;;
28086;SDS011;15392;48.912;8.380;2023-04-08T14:54:06;1.27;;;1.27;;
28086;SDS011;15392;48.912;8.380;2023-04-08T14:56:32;1.48;;;1.48;;
28086;SDS011;15392;48.912;8.380;2023-04-08T14:58:57;1.38;;;1.38;;
28086;SDS011;15392;48.912;8.380;2023-04-08T15:01:23;1.50;;;1.50;;
28086;SDS011;15392;48.912;8.380;2023-04-08T15:03:49;1.35;;;1.35;;
28086;SDS011;15392;48.912;8.380;2023-04-08T15:06:15;1.33;;;1.33;;
28086;SDS011;15392;48.912;8.380;2023-04-08T15:08:42;1.30;;;1.30;;